MZBZ/BZE METAR and TAF weather

Enter ICAO airport designator
Station Type Date Time Source
MZBZ METAR 2021/02/27 00:00 UTC NOAA

MZBZ 270000Z 10004KT 9999 FEW022 26/23 A2992 Q1013 NOSIG


Station Type Date Time Source
MZBZ Decoded METAR 2021/02/27 00:00 UTC NOAA

Belize / Phillip Goldston Intl. Airport, Belize (MZBZ) 17-32N 088-18W 5M
Feb 26, 2021 - 07:00 PM EST / 2021.02.27 0000 UTC
Wind: from the E (100 degrees) at 5 MPH (4 KT):0
Visibility: greater than 7 mile(s):0
Sky conditions: mostly clear
Temperature: 78 F (26 C)
Dew Point: 73 F (23 C)
Relative Humidity: 83%
Pressure (altimeter): 29.92 in. Hg (1013 hPa)
ob: MZBZ 270000Z 10004KT 9999 FEW022 26/23 A2992 Q1013 NOSIG
cycle: 0

Station Type Date Time Source
MZBZ TAF 2021/02/27 06:52 UTC NOAA

TAF MZBZ 270300Z 2706/2806 10009KT 9999 SCT023

Example: see airport list